createdAt,value
2023-07-18T00:00:44.556Z,99.99
2023-07-18T00:01:44.547Z,99.99
2023-07-18T00:02:44.506Z,99.99
2023-07-18T00:03:44.519Z,99.99
2023-07-18T00:04:44.452Z,99.99
2023-07-18T00:05:44.470Z,99.99
2023-07-18T00:06:44.440Z,99.99
2023-07-18T00:07:44.448Z,99.99
2023-07-18T00:08:44.428Z,99.99
2023-07-18T00:09:44.412Z,99.99
2023-07-18T00:10:44.408Z,99.99
2023-07-18T00:11:44.376Z,99.99
2023-07-18T00:12:44.406Z,99.99
2023-07-18T00:13:44.368Z,99.99
2023-07-18T00:14:44.374Z,99.99
2023-07-18T00:15:44.361Z,99.99
2023-07-18T00:16:44.326Z,99.99
2023-07-18T00:17:44.336Z,99.99
2023-07-18T00:18:44.335Z,99.99
2023-07-18T00:19:44.318Z,99.99
2023-07-18T00:20:44.295Z,99.99
2023-07-18T00:21:44.287Z,99.99
2023-07-18T00:22:44.435Z,99.99
2023-07-18T00:23:44.269Z,99.99
2023-07-18T00:24:44.244Z,99.99
2023-07-18T00:25:44.290Z,99.99
2023-07-18T00:26:44.256Z,99.99
2023-07-18T00:27:44.229Z,99.99
2023-07-18T00:28:44.222Z,99.99
2023-07-18T00:29:44.185Z,99.99
2023-07-18T00:30:44.191Z,99.99
2023-07-18T00:31:44.222Z,99.99
2023-07-18T00:32:44.185Z,99.99
2023-07-18T00:33:44.149Z,99.99
2023-07-18T00:34:44.202Z,99.99
2023-07-18T00:35:44.159Z,99.99
2023-07-18T00:36:44.131Z,99.99
2023-07-18T00:37:44.106Z,99.99
2023-07-18T00:38:44.103Z,99.99
2023-07-18T00:39:44.092Z,99.99
2023-07-18T00:40:44.176Z,99.99
2023-07-18T00:41:44.115Z,99.99
2023-07-18T00:42:44.059Z,99.99
2023-07-18T00:43:44.096Z,99.99
2023-07-18T00:44:44.059Z,99.99
2023-07-18T00:45:44.072Z,99.99
2023-07-18T00:46:44.023Z,99.99
2023-07-18T00:47:44.061Z,99.99
2023-07-18T00:48:44.024Z,99.99
2023-07-18T00:49:43.998Z,99.99
2023-07-18T00:50:43.974Z,99.99
2023-07-18T00:51:43.982Z,99.99
2023-07-18T00:52:43.986Z,99.99
2023-07-18T00:53:43.943Z,99.99
2023-07-18T00:54:43.934Z,99.99
2023-07-18T00:55:43.929Z,99.99
2023-07-18T00:56:43.921Z,99.99
2023-07-18T00:57:43.904Z,99.99
2023-07-18T00:58:43.915Z,99.99
2023-07-18T00:59:43.883Z,99.99
2023-07-18T01:00:43.890Z,99.99
2023-07-18T01:01:43.892Z,99.99
2023-07-18T01:02:43.938Z,99.99
2023-07-18T01:03:44.174Z,99.99
2023-07-18T01:04:50.327Z,99.99
2023-07-18T01:05:43.831Z,99.99
2023-07-18T01:06:43.835Z,99.99
2023-07-18T01:07:43.792Z,99.99
2023-07-18T01:08:43.809Z,99.99
2023-07-18T01:09:43.776Z,99.99
2023-07-18T01:10:43.765Z,99.99
2023-07-18T01:11:43.761Z,99.99
2023-07-18T01:12:43.749Z,99.99
2023-07-18T01:13:43.753Z,99.99
2023-07-18T01:14:43.735Z,99.99
2023-07-18T01:15:43.768Z,99.99
2023-07-18T01:16:43.712Z,99.99
2023-07-18T01:17:43.771Z,99.99
2023-07-18T01:18:43.679Z,99.99
2023-07-18T01:19:43.705Z,99.99
2023-07-18T01:20:43.648Z,99.99
2023-07-18T01:21:43.654Z,99.99
2023-07-18T01:22:43.679Z,99.99
2023-07-18T01:23:43.705Z,99.99
2023-07-18T01:24:43.642Z,99.99
2023-07-18T01:25:43.644Z,99.99
2023-07-18T01:26:43.596Z,99.99
2023-07-18T01:27:43.591Z,99.99
2023-07-18T01:28:43.566Z,99.99
2023-07-18T01:29:43.583Z,99.99
2023-07-18T01:30:43.557Z,99.99
2023-07-18T01:31:43.568Z,99.99
2023-07-18T01:32:43.595Z,99.99
2023-07-18T01:33:43.674Z,99.99
2023-07-18T01:34:43.611Z,99.99
2023-07-18T01:35:43.521Z,99.99
2023-07-18T01:36:43.486Z,99.99
2023-07-18T01:37:43.483Z,99.99
2023-07-18T01:38:43.502Z,99.99
2023-07-18T01:39:43.541Z,99.99
2023-07-18T01:40:43.555Z,99.99
2023-07-18T01:41:43.446Z,99.99
2023-07-18T01:42:43.471Z,99.99
2023-07-18T01:43:43.439Z,99.99
2023-07-18T01:44:43.449Z,99.99
2023-07-18T01:45:43.438Z,99.99
2023-07-18T01:46:43.425Z,99.99
2023-07-18T01:47:43.396Z,99.99
2023-07-18T01:48:43.374Z,99.99
2023-07-18T01:49:43.353Z,99.99
2023-07-18T01:50:43.374Z,99.99
2023-07-18T01:51:43.338Z,99.99
2023-07-18T01:52:43.331Z,99.99
2023-07-18T01:53:43.345Z,99.99
2023-07-18T01:54:43.324Z,99.99
2023-07-18T01:55:43.287Z,99.99
2023-07-18T01:56:43.315Z,99.99
2023-07-18T01:57:43.331Z,99.99
2023-07-18T01:58:43.274Z,99.99
2023-07-18T01:59:43.250Z,99.99
2023-07-18T02:00:43.279Z,99.99
2023-07-18T02:01:43.252Z,99.99
2023-07-18T02:02:43.383Z,99.99
2023-07-18T02:03:43.214Z,99.99
2023-07-18T02:04:43.188Z,99.99
2023-07-18T02:05:43.190Z,99.99
2023-07-18T02:06:43.196Z,99.99
2023-07-18T02:07:43.177Z,99.99
2023-07-18T02:08:43.153Z,99.99
2023-07-18T02:09:43.161Z,99.99
2023-07-18T02:10:43.141Z,99.99
2023-07-18T02:11:43.225Z,99.99
2023-07-18T02:12:43.121Z,99.99
2023-07-18T02:13:43.103Z,99.99
2023-07-18T02:14:43.097Z,99.99
2023-07-18T02:15:43.098Z,99.99
2023-07-18T02:16:43.131Z,99.99
2023-07-18T02:17:43.108Z,99.99
2023-07-18T02:18:43.060Z,99.99
2023-07-18T02:19:43.043Z,99.99
2023-07-18T02:20:43.024Z,99.99
2023-07-18T02:21:43.042Z,99.99
2023-07-18T02:22:43.076Z,99.99
2023-07-18T02:23:42.997Z,99.99
2023-07-18T02:24:42.990Z,99.99
2023-07-18T02:25:42.999Z,99.99
2023-07-18T02:26:42.977Z,99.99
2023-07-18T02:27:43.006Z,99.99
2023-07-18T02:28:42.933Z,99.99
2023-07-18T02:29:42.946Z,99.99
2023-07-18T02:30:43.056Z,99.99
2023-07-18T02:31:42.928Z,99.99
2023-07-18T02:32:43.218Z,99.99
2023-07-18T02:33:42.909Z,99.99
2023-07-18T02:34:42.896Z,99.99
2023-07-18T02:35:42.875Z,99.99
2023-07-18T02:36:42.858Z,99.99
2023-07-18T02:37:42.880Z,99.99
2023-07-18T02:38:42.854Z,99.99
2023-07-18T02:39:42.854Z,99.99
2023-07-18T02:40:42.819Z,99.99
2023-07-18T02:41:42.818Z,99.99
2023-07-18T02:42:42.842Z,99.99
2023-07-18T02:43:42.795Z,99.99
2023-07-18T02:44:42.780Z,99.99
2023-07-18T02:45:42.786Z,99.99
2023-07-18T02:46:42.803Z,99.99
2023-07-18T02:47:42.783Z,99.99
2023-07-18T02:48:42.744Z,99.99
2023-07-18T02:49:42.749Z,99.99
2023-07-18T02:50:42.746Z,99.99
2023-07-18T02:51:42.725Z,99.99
2023-07-18T02:52:42.736Z,99.99
2023-07-18T02:53:42.707Z,99.99
2023-07-18T02:54:42.626Z,99.99
2023-07-18T02:55:42.660Z,99.99
2023-07-18T02:56:42.648Z,99.99
2023-07-18T02:57:42.664Z,99.99
2023-07-18T02:58:42.660Z,99.99
2023-07-18T02:59:42.582Z,99.99
2023-07-18T03:00:42.547Z,99.99
2023-07-18T03:01:42.618Z,99.99
2023-07-18T03:02:42.666Z,99.99
2023-07-18T03:03:42.618Z,99.99
2023-07-18T03:04:42.537Z,99.99
2023-07-18T03:05:42.529Z,99.99
2023-07-18T03:06:42.503Z,99.99
2023-07-18T03:07:42.503Z,99.99
2023-07-18T03:08:42.456Z,99.99
2023-07-18T03:09:42.494Z,99.99
2023-07-18T03:10:42.446Z,99.99
2023-07-18T03:11:42.442Z,99.99
2023-07-18T03:12:42.427Z,99.99
2023-07-18T03:13:42.433Z,99.99
2023-07-18T03:14:42.409Z,99.99
2023-07-18T03:15:42.402Z,99.99
2023-07-18T03:16:42.475Z,99.99
2023-07-18T03:17:42.442Z,99.99
2023-07-18T03:18:42.393Z,99.99
2023-07-18T03:19:42.351Z,99.99
2023-07-18T03:20:42.341Z,99.99
2023-07-18T03:21:42.345Z,99.99
2023-07-18T03:22:42.378Z,99.99
2023-07-18T03:23:42.299Z,99.99
2023-07-18T03:24:42.310Z,99.99
2023-07-18T03:25:43.252Z,99.99
2023-07-18T03:26:42.300Z,99.99
2023-07-18T03:27:42.280Z,99.99
2023-07-18T03:28:42.248Z,99.99
2023-07-18T03:29:42.274Z,99.99
2023-07-18T03:30:42.263Z,99.99
2023-07-18T03:31:42.236Z,99.99
2023-07-18T03:32:43.347Z,99.99
2023-07-18T03:33:42.218Z,99.99
2023-07-18T03:34:42.218Z,99.99
2023-07-18T03:35:42.174Z,99.99
2023-07-18T03:36:42.182Z,99.99
2023-07-18T03:37:42.169Z,99.99
2023-07-18T03:38:42.166Z,99.99
2023-07-18T03:39:42.221Z,99.99
2023-07-18T03:40:42.128Z,99.99
2023-07-18T03:41:42.177Z,99.99
2023-07-18T03:42:42.099Z,99.99
2023-07-18T03:43:42.095Z,99.99
2023-07-18T03:44:42.075Z,99.99
2023-07-18T03:45:42.103Z,99.99
2023-07-18T03:46:42.155Z,99.99
2023-07-18T03:47:42.099Z,99.99
2023-07-18T03:48:42.094Z,99.99
2023-07-18T03:49:42.035Z,99.99
2023-07-18T03:50:43.632Z,99.99
2023-07-18T03:51:42.008Z,99.99
2023-07-18T03:52:42.055Z,99.99
2023-07-18T03:53:41.999Z,99.99
2023-07-18T03:54:42.001Z,99.99
2023-07-18T03:55:41.977Z,99.99
2023-07-18T03:56:41.988Z,99.99
2023-07-18T03:57:41.947Z,99.99
2023-07-18T03:58:41.942Z,99.99
2023-07-18T03:59:41.939Z,99.99
2023-07-18T04:00:41.910Z,99.99
2023-07-18T04:01:42.015Z,99.99
2023-07-18T04:02:44.453Z,99.99
2023-07-18T04:03:41.987Z,99.99
2023-07-18T04:04:41.876Z,99.99
2023-07-18T04:05:41.865Z,99.99
2023-07-18T04:06:41.849Z,99.99
2023-07-18T04:07:41.854Z,99.99
2023-07-18T04:08:42.820Z,99.99
2023-07-18T04:09:41.837Z,99.99
2023-07-18T04:10:41.829Z,99.99
2023-07-18T04:11:41.801Z,99.99
2023-07-18T04:12:41.835Z,99.99
2023-07-18T04:13:41.796Z,99.99
2023-07-18T04:14:41.763Z,99.99
2023-07-18T04:15:41.760Z,99.99
2023-07-18T04:16:41.862Z,99.99
2023-07-18T04:17:41.833Z,99.99
2023-07-18T04:18:41.758Z,99.99
2023-07-18T04:19:41.706Z,99.99
2023-07-18T04:20:41.709Z,99.99
2023-07-18T04:21:41.697Z,99.99
2023-07-18T04:22:41.746Z,99.99
2023-07-18T04:23:41.709Z,99.99
2023-07-18T04:24:41.723Z,99.99
2023-07-18T04:25:41.668Z,99.99
2023-07-18T04:26:41.639Z,99.99
2023-07-18T04:27:41.651Z,99.99
2023-07-18T04:28:41.635Z,99.99
2023-07-18T04:29:41.697Z,99.99
2023-07-18T04:30:41.596Z,99.99
2023-07-18T04:31:41.614Z,99.99
2023-07-18T04:32:41.645Z,99.99
2023-07-18T04:33:41.588Z,99.99
2023-07-18T04:34:41.578Z,99.99
2023-07-18T04:35:41.558Z,99.99
2023-07-18T04:36:41.531Z,99.99
2023-07-18T04:37:41.548Z,99.99
2023-07-18T04:38:41.578Z,99.99
2023-07-18T04:39:41.552Z,99.99
2023-07-18T04:40:41.502Z,99.99
2023-07-18T04:41:54.705Z,99.99
2023-07-18T04:42:41.475Z,99.99
2023-07-18T04:43:41.468Z,99.99
2023-07-18T04:44:41.468Z,99.99
2023-07-18T04:45:41.490Z,99.99
2023-07-18T04:46:41.568Z,99.99
2023-07-18T04:47:41.537Z,99.99
2023-07-18T04:48:41.411Z,99.99
2023-07-18T04:49:41.425Z,99.99
2023-07-18T04:50:41.400Z,99.99
2023-07-18T04:51:41.380Z,99.99
2023-07-18T04:52:41.380Z,99.99
2023-07-18T04:53:41.375Z,99.99
2023-07-18T04:54:41.392Z,99.99
2023-07-18T04:55:41.350Z,99.99
2023-07-18T04:56:41.324Z,99.99
2023-07-18T04:57:41.334Z,99.99
2023-07-18T04:58:41.300Z,99.99
2023-07-18T04:59:41.291Z,99.99
2023-07-18T05:00:41.318Z,99.99
2023-07-18T05:01:41.314Z,99.99
2023-07-18T05:02:41.286Z,99.99
2023-07-18T05:04:41.376Z,99.99
2023-07-18T05:05:43.192Z,99.99
2023-07-18T05:06:41.218Z,99.99
2023-07-18T05:07:41.226Z,99.99
2023-07-18T05:08:41.219Z,99.99
2023-07-18T05:09:41.210Z,99.99
2023-07-18T05:10:41.207Z,99.99
2023-07-18T05:11:41.180Z,99.99
2023-07-18T05:12:41.150Z,99.99
2023-07-18T05:13:41.157Z,99.99
2023-07-18T05:14:41.154Z,99.99
2023-07-18T05:15:41.196Z,99.99
2023-07-18T05:16:41.146Z,99.99
2023-07-18T05:17:41.177Z,99.99
2023-07-18T05:18:41.104Z,99.99
2023-07-18T05:19:41.102Z,99.99
2023-07-18T05:20:41.132Z,99.99
2023-07-18T05:21:41.100Z,99.99
2023-07-18T05:22:41.127Z,99.99
2023-07-18T05:23:41.079Z,99.99
2023-07-18T05:24:41.022Z,99.74
2023-07-18T05:25:41.257Z,99.19
2023-07-18T05:26:41.019Z,98.79
2023-07-18T05:27:41.019Z,98.58
2023-07-18T05:28:41.034Z,98.33
2023-07-18T05:29:41.007Z,98.03
2023-07-18T05:30:40.994Z,97.83
2023-07-18T05:31:40.989Z,97.52
2023-07-18T05:32:40.982Z,97.27
2023-07-18T05:33:40.934Z,96.66
2023-07-18T05:34:40.950Z,96.77
2023-07-18T05:35:40.920Z,96.66
2023-07-18T05:36:40.911Z,96.42
2023-07-18T05:37:40.933Z,96.11
2023-07-18T05:38:40.969Z,95.81
2023-07-18T05:39:40.875Z,95.91
2023-07-18T05:40:40.868Z,95.81
2023-07-18T05:41:40.887Z,95.61
2023-07-18T05:42:40.848Z,94.90
2023-07-18T05:43:40.848Z,94.95
2023-07-18T05:44:40.843Z,94.14
2023-07-18T05:45:40.855Z,94.24
2023-07-18T05:46:41.474Z,94.10
2023-07-18T05:47:40.819Z,93.49
2023-07-18T05:48:40.787Z,93.70
2023-07-18T05:49:40.790Z,92.88
2023-07-18T05:50:40.760Z,92.94
2023-07-18T05:51:40.757Z,92.64
2023-07-18T05:52:40.786Z,91.42
2023-07-18T05:53:40.735Z,91.93
2023-07-18T05:54:40.751Z,91.38
2023-07-18T05:55:40.776Z,91.08
2023-07-18T05:56:40.716Z,90.88
2023-07-18T05:57:40.702Z,90.78
2023-07-18T05:58:40.696Z,90.03
2023-07-18T05:59:40.678Z,90.33
2023-07-18T06:00:40.680Z,89.92
2023-07-18T06:01:40.699Z,88.92
2023-07-18T06:02:40.703Z,89.12
2023-07-18T06:03:40.779Z,88.92
2023-07-18T06:04:40.627Z,88.81
2023-07-18T06:05:40.606Z,88.71
2023-07-18T06:06:40.609Z,89.01
2023-07-18T06:07:40.624Z,88.41
2023-07-18T06:08:40.596Z,87.90
2023-07-18T06:09:40.571Z,88.21
2023-07-18T06:10:40.569Z,88.06
2023-07-18T06:11:40.540Z,87.76
2023-07-18T06:12:40.567Z,87.76
2023-07-18T06:13:40.534Z,86.95
2023-07-18T06:14:40.527Z,86.75
2023-07-18T06:15:40.556Z,86.35
2023-07-18T06:16:40.644Z,86.15
2023-07-18T06:17:40.545Z,87.46
2023-07-18T06:18:40.490Z,87.01
2023-07-18T06:19:40.459Z,85.90
2023-07-18T06:20:40.544Z,85.40
2023-07-18T06:21:40.515Z,85.70
2023-07-18T06:22:40.490Z,85.70
2023-07-18T06:23:40.424Z,85.76
2023-07-18T06:24:40.415Z,85.56
2023-07-18T06:25:40.398Z,85.36
2023-07-18T06:26:40.435Z,84.85
2023-07-18T06:27:40.476Z,84.65
2023-07-18T06:28:40.376Z,85.05
2023-07-18T06:29:40.346Z,85.05
2023-07-18T06:30:40.391Z,85.11
2023-07-18T06:31:40.425Z,85.72
2023-07-18T06:32:40.817Z,84.91
2023-07-18T06:33:40.360Z,83.70
2023-07-18T06:34:40.305Z,84.61
2023-07-18T06:35:40.298Z,84.11
2023-07-18T06:36:40.558Z,84.81
2023-07-18T06:37:40.287Z,83.60
2023-07-18T06:38:40.268Z,84.81
2023-07-18T06:39:40.241Z,84.21
2023-07-18T06:40:40.251Z,84.17
2023-07-18T06:41:40.229Z,83.66
2023-07-18T06:42:40.240Z,84.07
2023-07-18T06:43:40.243Z,84.07
2023-07-18T06:44:40.204Z,83.26
2023-07-18T06:45:40.213Z,83.36
2023-07-18T06:46:42.622Z,82.56
2023-07-18T06:47:40.365Z,83.32
2023-07-18T06:48:40.179Z,82.21
2023-07-18T06:49:40.153Z,82.31
2023-07-18T06:50:40.118Z,82.62
2023-07-18T06:51:40.125Z,82.38
2023-07-18T06:52:40.147Z,81.98
2023-07-18T06:53:40.180Z,82.38
2023-07-18T06:54:40.096Z,81.67
2023-07-18T06:55:40.088Z,82.18
2023-07-18T06:56:40.069Z,82.78
2023-07-18T06:57:42.610Z,82.58
2023-07-18T06:58:40.031Z,82.68
2023-07-18T06:59:40.036Z,81.93
2023-07-18T07:00:40.142Z,82.24
2023-07-18T07:01:40.079Z,81.93
2023-07-18T07:02:40.124Z,81.43
2023-07-18T07:03:40.145Z,81.23
2023-07-18T07:04:40.011Z,79.88
2023-07-18T07:05:39.978Z,79.68
2023-07-18T07:06:39.960Z,80.58
2023-07-18T07:07:39.971Z,80.99
2023-07-18T07:08:39.944Z,79.88
2023-07-18T07:09:39.989Z,78.07
2023-07-18T07:10:39.910Z,78.54
2023-07-18T07:11:39.950Z,78.94
2023-07-18T07:12:39.911Z,77.07
2023-07-18T07:13:39.905Z,77.94
2023-07-18T07:14:39.877Z,77.53
2023-07-18T07:15:39.885Z,77.83
2023-07-18T07:16:39.908Z,77.13
2023-07-18T07:17:39.880Z,76.53
2023-07-18T07:18:39.843Z,75.72
2023-07-18T07:19:39.865Z,76.32
2023-07-18T07:20:39.850Z,76.63
2023-07-18T07:21:39.825Z,77.23
2023-07-18T07:22:39.845Z,77.03
2023-07-18T07:23:39.785Z,77.23
2023-07-18T07:24:39.807Z,77.50
2023-07-18T07:25:39.798Z,79.41
2023-07-18T07:26:39.794Z,77.26
2023-07-18T07:27:40.140Z,77.26
2023-07-18T07:28:39.744Z,76.05
2023-07-18T07:29:39.722Z,76.82
2023-07-18T07:30:39.834Z,75.42
2023-07-18T07:31:39.703Z,75.62
2023-07-18T07:32:39.898Z,75.82
2023-07-18T07:33:39.701Z,74.61
2023-07-18T07:34:42.416Z,74.61
2023-07-18T07:35:39.728Z,72.50
2023-07-18T07:36:39.651Z,72.30
2023-07-18T07:37:39.666Z,71.40
2023-07-18T07:38:39.656Z,72.74
2023-07-18T07:39:39.629Z,72.40
2023-07-18T07:40:39.641Z,75.31
2023-07-18T07:41:39.631Z,73.50
2023-07-18T07:42:39.642Z,72.50
2023-07-18T07:43:39.578Z,71.70
2023-07-18T07:44:39.576Z,73.17
2023-07-18T07:45:39.841Z,73.77
2023-07-18T07:46:39.602Z,72.83
2023-07-18T07:47:39.573Z,73.33
2023-07-18T07:48:39.527Z,72.24
2023-07-18T07:49:39.526Z,72.90
2023-07-18T07:50:39.497Z,70.19
2023-07-18T07:51:39.520Z,70.50
2023-07-18T07:52:39.492Z,71.50
2023-07-18T07:53:39.489Z,73.00
2023-07-18T07:54:39.457Z,70.46
2023-07-18T07:55:41.465Z,71.46
2023-07-18T07:56:39.466Z,68.55
2023-07-18T07:57:39.419Z,70.06
2023-07-18T07:58:39.422Z,71.63
2023-07-18T07:59:39.435Z,68.52
2023-07-18T08:00:39.460Z,69.12
2023-07-18T08:01:39.641Z,68.42
2023-07-18T08:02:39.484Z,66.52
2023-07-18T08:03:39.422Z,67.82
2023-07-18T08:04:39.671Z,67.12
2023-07-18T08:05:39.424Z,69.32
2023-07-18T08:06:39.344Z,67.62
2023-07-18T08:07:39.338Z,66.72
2023-07-18T08:08:39.308Z,66.62
2023-07-18T08:09:39.294Z,67.82
2023-07-18T08:10:39.284Z,68.42
2023-07-18T08:11:39.266Z,67.02
2023-07-18T08:12:39.280Z,69.12
2023-07-18T08:13:39.248Z,66.92
2023-07-18T08:14:39.275Z,68.02
2023-07-18T08:15:39.251Z,68.62
2023-07-18T08:16:39.280Z,67.72
2023-07-18T08:17:39.295Z,67.72
2023-07-18T08:18:39.193Z,66.82
2023-07-18T08:19:39.184Z,64.62
2023-07-18T08:20:39.179Z,64.92
2023-07-18T08:21:39.155Z,64.34
2023-07-18T08:22:39.214Z,65.82
2023-07-18T08:23:39.156Z,65.52
2023-07-18T08:24:39.199Z,64.51
2023-07-18T08:25:39.120Z,65.62
2023-07-18T08:26:39.117Z,64.62
2023-07-18T08:27:39.132Z,63.58
2023-07-18T08:28:39.097Z,63.18
2023-07-18T08:29:39.120Z,64.39
2023-07-18T08:30:39.071Z,63.28
2023-07-18T08:31:39.075Z,64.39
2023-07-18T08:32:39.130Z,64.89
2023-07-18T08:33:39.036Z,63.58
2023-07-18T08:34:39.035Z,64.89
2023-07-18T08:35:39.050Z,66.66
2023-07-18T08:36:39.016Z,63.15
2023-07-18T08:37:38.993Z,62.85
2023-07-18T08:38:39.016Z,62.75
2023-07-18T08:39:39.011Z,63.45
2023-07-18T08:40:39.032Z,63.92
2023-07-18T08:41:38.970Z,64.12
2023-07-18T08:42:39.039Z,61.89
2023-07-18T08:43:39.081Z,62.09
2023-07-18T08:44:38.983Z,63.17
2023-07-18T08:45:38.994Z,62.96
2023-07-18T08:46:38.938Z,63.96
2023-07-18T08:47:38.898Z,63.56
2023-07-18T08:48:38.890Z,61.33
2023-07-18T08:49:38.876Z,58.56
2023-07-18T08:50:38.909Z,57.07
2023-07-18T08:51:38.921Z,59.09
2023-07-18T08:52:38.952Z,59.09
2023-07-18T08:53:44.853Z,59.19
2023-07-18T08:54:38.850Z,60.19
2023-07-18T08:55:38.866Z,61.76
2023-07-18T08:56:38.807Z,58.29
2023-07-18T08:57:38.805Z,59.59
2023-07-18T08:58:38.813Z,59.49
2023-07-18T08:59:38.778Z,59.99
2023-07-18T09:00:38.767Z,59.39
2023-07-18T09:01:38.793Z,57.59
2023-07-18T09:02:38.815Z,59.86
2023-07-18T09:03:38.777Z,59.97
2023-07-18T09:04:38.746Z,59.66
2023-07-18T09:05:38.733Z,58.56
2023-07-18T09:06:38.717Z,59.06
2023-07-18T09:07:38.704Z,59.97
2023-07-18T09:08:38.689Z,58.86
2023-07-18T09:09:38.689Z,58.29
2023-07-18T09:10:38.673Z,59.86
2023-07-18T09:11:38.970Z,59.77
2023-07-18T09:12:38.630Z,56.77
2023-07-18T09:13:38.633Z,57.39
2023-07-18T09:14:38.645Z,56.70
2023-07-18T09:15:38.669Z,58.00
2023-07-18T09:16:38.610Z,57.19
2023-07-18T09:17:38.657Z,60.36
2023-07-18T09:18:38.595Z,55.54
2023-07-18T09:19:38.615Z,55.84
2023-07-18T09:20:38.550Z,55.04
2023-07-18T09:21:38.572Z,54.44
2023-07-18T09:22:38.583Z,54.54
2023-07-18T09:23:38.528Z,55.24
2023-07-18T09:24:38.576Z,56.14
2023-07-18T09:25:38.502Z,56.74
2023-07-18T09:26:38.497Z,56.54
2023-07-18T09:27:38.495Z,57.21
2023-07-18T09:28:38.483Z,56.91
2023-07-18T09:29:38.478Z,56.84
2023-07-18T09:30:38.472Z,57.24
2023-07-18T09:31:38.471Z,57.71
2023-07-18T09:32:38.489Z,57.88
2023-07-18T09:33:38.417Z,56.18
2023-07-18T09:34:38.427Z,57.28
2023-07-18T09:35:38.402Z,55.26
2023-07-18T09:36:38.389Z,55.56
2023-07-18T09:37:38.389Z,54.66
2023-07-18T09:38:38.370Z,56.83
2023-07-18T09:39:38.359Z,54.74
2023-07-18T09:40:39.509Z,51.67
2023-07-18T09:41:38.336Z,53.34
2023-07-18T09:43:38.324Z,52.74
2023-07-18T09:44:38.326Z,50.67
2023-07-18T09:45:38.341Z,50.27
2023-07-18T09:46:38.309Z,53.34
2023-07-18T09:47:38.367Z,50.55
2023-07-18T09:49:40.945Z,51.87
2023-07-18T09:50:38.259Z,51.35
2023-07-18T09:51:38.268Z,51.45
2023-07-18T09:52:38.221Z,51.05
2023-07-18T09:53:38.214Z,52.55
2023-07-18T09:54:38.206Z,54.44
2023-07-18T09:55:38.217Z,51.84
2023-07-18T09:56:44.194Z,52.42
2023-07-18T09:57:38.254Z,49.83
2023-07-18T09:58:38.166Z,49.93
2023-07-18T09:59:38.218Z,49.53
2023-07-18T10:00:38.146Z,49.83
2023-07-18T10:01:38.244Z,50.60
2023-07-18T10:02:38.229Z,49.63
2023-07-18T10:03:38.213Z,50.13
2023-07-18T10:04:38.205Z,50.73
2023-07-18T10:05:38.113Z,49.13
2023-07-18T10:06:38.122Z,50.13
2023-07-18T10:07:38.076Z,49.33
2023-07-18T10:08:38.045Z,48.73
2023-07-18T10:09:38.077Z,48.03
2023-07-18T10:10:38.045Z,50.90
2023-07-18T10:11:38.009Z,48.80
2023-07-18T10:12:38.023Z,48.50
2023-07-18T10:13:37.993Z,47.31
2023-07-18T10:14:37.989Z,45.82
2023-07-18T10:15:38.029Z,45.20
2023-07-18T10:16:38.050Z,47.19
2023-07-18T10:17:38.113Z,45.70
2023-07-18T10:18:37.957Z,45.60
2023-07-18T10:19:37.925Z,47.41
2023-07-18T10:20:38.333Z,47.59
2023-07-18T10:21:37.946Z,46.79
2023-07-18T10:22:38.151Z,47.89
2023-07-18T10:23:37.985Z,48.19
2023-07-18T10:24:37.882Z,47.29
2023-07-18T10:25:37.906Z,46.37
2023-07-18T10:26:37.931Z,44.68
2023-07-18T10:27:37.884Z,46.37
2023-07-18T10:28:37.843Z,46.99
2023-07-18T10:29:37.903Z,47.66
2023-07-18T10:30:37.921Z,50.73
2023-07-18T10:31:37.974Z,47.02
2023-07-18T10:32:37.832Z,50.38
2023-07-18T10:33:37.878Z,47.87
2023-07-18T10:34:37.776Z,47.60
2023-07-18T10:35:37.770Z,48.59
2023-07-18T10:36:37.780Z,49.26
2023-07-18T10:37:37.807Z,47.57
2023-07-18T10:38:37.734Z,46.19
2023-07-18T10:39:37.737Z,47.08
2023-07-18T10:40:38.049Z,46.95
2023-07-18T10:41:37.719Z,45.98
2023-07-18T10:42:37.710Z,47.38
2023-07-18T10:43:37.697Z,45.89
2023-07-18T10:44:37.680Z,46.86
2023-07-18T10:45:37.685Z,48.07
2023-07-18T10:46:37.762Z,45.37
2023-07-18T10:47:37.690Z,47.63
2023-07-18T10:48:37.632Z,43.74
2023-07-18T10:49:37.626Z,43.06
2023-07-18T10:50:37.649Z,42.69
2023-07-18T10:51:37.866Z,43.18
2023-07-18T10:52:37.604Z,44.27
2023-07-18T10:53:37.623Z,44.59
2023-07-18T10:54:41.182Z,46.50
2023-07-18T10:55:37.690Z,45.14
2023-07-18T10:56:37.589Z,46.72
2023-07-18T10:57:37.621Z,46.53
2023-07-18T10:58:37.544Z,45.29
2023-07-18T10:59:37.537Z,46.76
2023-07-18T11:00:37.628Z,45.54
2023-07-18T11:01:37.565Z,43.91
2023-07-18T11:02:38.158Z,42.45
2023-07-18T11:03:37.532Z,44.57
2023-07-18T11:04:37.512Z,46.70
2023-07-18T11:05:37.478Z,46.53
2023-07-18T11:06:37.712Z,47.64
2023-07-18T11:07:37.464Z,46.97
2023-07-18T11:08:37.936Z,47.47
2023-07-18T11:09:37.485Z,48.19
2023-07-18T11:10:37.485Z,48.58
2023-07-18T11:11:37.503Z,48.50
2023-07-18T11:12:37.405Z,49.60
2023-07-18T11:13:37.450Z,49.01
2023-07-18T11:14:37.410Z,48.31
2023-07-18T11:15:37.388Z,47.71
2023-07-18T11:16:37.555Z,47.49
2023-07-18T11:17:37.422Z,47.56
2023-07-18T11:18:37.446Z,48.46
2023-07-18T11:19:37.331Z,47.47
2023-07-18T11:20:37.352Z,46.05
2023-07-18T11:21:37.323Z,48.11
2023-07-18T11:22:37.432Z,45.21
2023-07-18T11:23:37.310Z,45.11
2023-07-18T11:24:37.328Z,46.08
2023-07-18T11:25:37.344Z,44.70
2023-07-18T11:26:37.294Z,44.70
2023-07-18T11:27:37.259Z,45.56
2023-07-18T11:28:37.288Z,43.16
2023-07-18T11:29:37.247Z,45.23
2023-07-18T11:30:37.295Z,47.66
2023-07-18T11:31:41.691Z,44.29
2023-07-18T11:32:37.256Z,42.50
2023-07-18T11:33:37.211Z,42.43
2023-07-18T11:34:37.286Z,46.77
2023-07-18T11:35:37.233Z,42.31
2023-07-18T11:36:37.161Z,43.89
2023-07-18T11:37:42.274Z,40.41
2023-07-18T11:38:37.209Z,41.10
2023-07-18T11:39:37.177Z,41.85
2023-07-18T11:40:37.132Z,40.20
2023-07-18T11:41:37.151Z,41.52
2023-07-18T11:42:37.118Z,43.30
2023-07-18T11:43:37.366Z,43.38
2023-07-18T11:44:37.115Z,41.20
2023-07-18T11:45:37.075Z,43.48
2023-07-18T11:46:37.116Z,41.87
2023-07-18T11:47:37.170Z,39.81
2023-07-18T11:48:37.160Z,39.12
2023-07-18T11:49:37.524Z,37.13
2023-07-18T11:50:37.136Z,37.53
2023-07-18T11:51:37.071Z,40.17
2023-07-18T11:52:36.997Z,36.88
2023-07-18T11:53:37.005Z,37.87
2023-07-18T11:54:37.315Z,39.36
2023-07-18T11:55:37.000Z,38.76
2023-07-18T11:56:36.958Z,38.57
2023-07-18T11:57:36.963Z,36.27
2023-07-18T11:58:36.955Z,36.65
2023-07-18T11:59:36.946Z,38.23
2023-07-18T12:00:36.918Z,38.82
2023-07-18T12:01:38.915Z,37.03
2023-07-18T12:02:36.943Z,37.52
2023-07-18T12:03:36.981Z,38.49
2023-07-18T12:04:36.928Z,37.01
2023-07-18T12:05:36.909Z,37.39
2023-07-18T12:06:36.953Z,39.34
2023-07-18T12:07:36.930Z,39.11
2023-07-18T12:08:36.913Z,35.74
2023-07-18T12:09:36.842Z,37.02
2023-07-18T12:10:36.911Z,35.74
2023-07-18T12:11:36.830Z,36.57
2023-07-18T12:12:36.785Z,36.76
2023-07-18T12:13:36.879Z,36.96
2023-07-18T12:14:36.796Z,36.76
2023-07-18T12:15:38.305Z,38.54
2023-07-18T12:16:37.032Z,36.94
2023-07-18T12:17:36.815Z,37.81
2023-07-18T12:18:36.731Z,35.80
2023-07-18T12:19:36.736Z,34.70
2023-07-18T12:20:36.724Z,34.59
2023-07-18T12:21:36.737Z,36.34
2023-07-18T12:22:36.741Z,34.41
2023-07-18T12:23:36.697Z,33.77
2023-07-18T12:24:36.662Z,36.17
2023-07-18T12:25:36.679Z,38.64
2023-07-18T12:26:36.652Z,35.77
2023-07-18T12:27:36.641Z,34.97
2023-07-18T12:28:36.654Z,34.87
2023-07-18T12:29:36.634Z,35.74
2023-07-18T12:30:36.739Z,34.63
2023-07-18T12:31:36.715Z,35.36
2023-07-18T12:32:36.658Z,34.99
2023-07-18T12:33:36.641Z,36.66
2023-07-18T12:34:36.592Z,38.14
2023-07-18T12:35:36.559Z,34.49
2023-07-18T12:36:36.554Z,34.54
2023-07-18T12:37:36.629Z,34.64
2023-07-18T12:38:36.518Z,34.23
2023-07-18T12:39:36.553Z,33.53
2023-07-18T12:40:36.524Z,33.72
2023-07-18T12:41:36.518Z,34.70
2023-07-18T12:42:36.503Z,32.56
2023-07-18T12:43:36.543Z,34.43
2023-07-18T12:44:36.484Z,36.30
2023-07-18T12:45:36.457Z,31.97
2023-07-18T12:46:36.481Z,33.94
2023-07-18T12:47:36.579Z,33.28
2023-07-18T12:48:36.513Z,38.09
2023-07-18T12:50:36.406Z,33.92
2023-07-18T12:51:36.403Z,32.95
2023-07-18T12:52:36.390Z,36.97
2023-07-18T12:53:36.404Z,33.13
2023-07-18T12:54:36.448Z,33.13
2023-07-18T12:55:36.348Z,36.46
2023-07-18T12:56:36.361Z,32.08